Adventuress — WCX8691 — position and weather

sailwx.info

Track history (hours):
 
Tides and Currents Weather Stations Pressure Air Temp Water Temp Dewpoint Dewpoint Depression Visibility Wind Speed Wind Dir Waves Ship Positions

Adventuress (United States)

Ship's website: http://www.soundexp.org/

More information available from US FCC via Universal Licensing System and Coast Guard Vessel Documentation Center.

Last reported at 2014-Jul-31 01:23 UTC. Time now 2014-Jul-31 11:38 UTC.
Position N 48°34' W 122°53'.

Length 43 m.

Type: Passenger vessel. MMSI: 367323180.

Date/timePositionNaut miles runAvg speedWind from/ knotsBaromVisibWave heightAir tempDewpointWater temp
2014-Jul-31 01:23N 48°34' W 122°53'0 0.6
2014-Jul-31 00:33N 48°34' W 122°53'1 1.1
2014-Jul-30 23:33N 48°34' W 122°51'1 0.9
2014-Jul-30 22:33N 48°33' W 122°50'2 1.7
2014-Jul-30 21:32N 48°31' W 122°51'2 0.1
2014-Jul-29 22:30N 48°30' W 122°51'1 0.5
2014-Jul-29 21:31N 48°30' W 122°51'1 0.2
2014-Jul-29 17:30N 48°30' W 122°50'0 0.0
2014-Jul-29 11:30N 48°30' W 122°50'0 0.0
2014-Jul-29 00:06N 48°30' W 122°50'1 1.2
2014-Jul-28 23:33N 48°31' W 122°51'0 0.1
2014-Jul-28 22:32N 48°31' W 122°51'1 1.5
2014-Jul-28 21:33N 48°32' W 122°49'4 3.4
2014-Jul-28 20:30N 48°31' W 122°43'5 5.3
2014-Jul-28 19:33N 48°31' W 122°36'1 0.5
2014-Jul-28 18:23N 48°31' W 122°36'0 0.0
2014-Jul-28 17:24N 48°31' W 122°36'0 0.0
2014-Jul-28 16:29N 48°31' W 122°36'0 0.0
2014-Jul-28 15:29N 48°31' W 122°36'0 0.0
2014-Jul-28 14:29N 48°31' W 122°36'0 0.0
2014-Jul-28 13:29N 48°31' W 122°36'0 0.0
2014-Jul-28 12:29N 48°31' W 122°36'0 0.0
2014-Jul-28 11:29N 48°31' W 122°36'0 0.0
2014-Jul-28 10:29N 48°31' W 122°36'0 0.0
2014-Jul-28 09:29N 48°31' W 122°36'0 0.0
2014-Jul-28 08:29N 48°31' W 122°36'0 0.0
2014-Jul-28 07:29N 48°31' W 122°36'0 0.0
2014-Jul-28 06:23N 48°31' W 122°36'0 0.0
2014-Jul-28 05:29N 48°31' W 122°36'0 0.0
2014-Jul-28 04:29N 48°31' W 122°36'0 0.0
2014-Jul-28 03:29N 48°31' W 122°36'0 0.0
2014-Jul-28 02:23N 48°31' W 122°36'0 0.0
2014-Jul-28 01:29N 48°31' W 122°36'0 0.0
2014-Jul-28 00:23N 48°31' W 122°36'0 0.0
2014-Jul-27 23:29N 48°31' W 122°36'0 0.0
2014-Jul-27 22:29N 48°31' W 122°36'0 0.0
2014-Jul-27 21:23N 48°31' W 122°36'0 0.0
2014-Jul-27 20:29N 48°31' W 122°36'0 0.0
2014-Jul-27 19:29N 48°31' W 122°36'0 0.0
2014-Jul-27 18:29N 48°31' W 122°36'0 0.0
2014-Jul-27 17:29N 48°31' W 122°36'0 0.0
2014-Jul-27 16:29N 48°31' W 122°36'0 0.0
2014-Jul-27 15:29N 48°31' W 122°36'0 0.0
2014-Jul-27 14:23N 48°31' W 122°36'0 0.0
2014-Jul-27 13:29N 48°31' W 122°36'0 0.0
2014-Jul-27 12:29N 48°31' W 122°36'0 0.0
2014-Jul-27 11:29N 48°31' W 122°36'0 0.0
2014-Jul-27 10:29N 48°31' W 122°36'0 0.0
2014-Jul-27 09:29N 48°31' W 122°36'0 0.0
2014-Jul-27 08:29N 48°31' W 122°36'0 0.0
2014-Jul-27 07:29N 48°31' W 122°36'0 0.0
2014-Jul-27 06:29N 48°31' W 122°36'0 0.0
2014-Jul-27 05:29N 48°31' W 122°36'0 0.0
2014-Jul-27 04:29N 48°31' W 122°36'0 0.0
2014-Jul-27 03:29N 48°31' W 122°36'0 0.0
2014-Jul-27 02:29N 48°31' W 122°36'0 0.0
2014-Jul-27 01:29N 48°31' W 122°36'0 0.0
2014-Jul-27 00:29N 48°31' W 122°36'0 0.0
2014-Jul-26 23:29N 48°31' W 122°36'0 0.0
2014-Jul-26 22:29N 48°31' W 122°36'0 0.1
2014-Jul-26 21:29N 48°31' W 122°36'0 0.0
2014-Jul-26 20:33N 48°31' W 122°36'1 0.5
2014-Jul-26 19:33N 48°31' W 122°36'0 0.3
2014-Jul-26 18:33N 48°31' W 122°35'1 1.0
2014-Jul-26 17:33N 48°31' W 122°34'5 0.2
2014-Jul-25 22:26N 48°34' W 122°40'5 5.1
2014-Jul-25 21:28N 48°30' W 122°43'6 6.8
2014-Jul-25 20:32N 48°25' W 122°50'6 6.5
2014-Jul-25 19:33N 48°26' W 122°59'5 5.2
2014-Jul-25 18:33N 48°28' W 123°06'4 4.3
2014-Jul-25 17:33N 48°29' W 123°12'5 4.5
2014-Jul-25 16:33N 48°34' W 123°12'5 3.9
2014-Jul-25 15:20N 48°38' W 123°14'5 0.3
2014-Jul-24 22:31N 48°38' W 123°06'7 7.1
2014-Jul-24 21:33N 48°33' W 123°00'1 0.6
2014-Jul-24 20:32N 48°32' W 123°01'0 0.0
2014-Jul-24 19:32N 48°32' W 123°01'0 0.0
2014-Jul-24 18:32N 48°32' W 123°01'0 0.0
2014-Jul-24 17:32N 48°32' W 123°01'1 0.8
2014-Jul-24 16:33N 48°33' W 123°00'1 0.2
2014-Jul-24 11:05N 48°34' W 122°59'0 0.0
2014-Jul-24 10:26N 48°34' W 122°59'0 0.0
2014-Jul-24 07:20N 48°34' W 122°59'0 0.0
2014-Jul-24 06:05N 48°34' W 122°59'0 0.0
2014-Jul-24 05:32N 48°34' W 122°59'0 0.0
2014-Jul-24 04:32N 48°34' W 122°59'0 0.0
2014-Jul-24 03:32N 48°34' W 122°59'0 0.0
2014-Jul-24 02:26N 48°34' W 122°59'0 0.0
2014-Jul-24 00:26N 48°34' W 122°59'0 0.0
2014-Jul-23 23:31N 48°34' W 122°59'0 0.0
2014-Jul-23 22:29N 48°34' W 122°59'0 0.0
2014-Jul-23 21:20N 48°34' W 122°59'0 0.0
2014-Jul-23 20:33N 48°34' W 122°59'2 1.8
2014-Jul-23 19:33N 48°33' W 122°57'4 4.3
2014-Jul-23 18:33N 48°36' W 122°52'2 2.2
2014-Jul-23 17:31N 48°38' W 122°52'2 0.1
2014-Jul-22 23:25N 48°40' W 122°54'1 0.5
2014-Jul-22 20:17N 48°39' W 122°52'1 1.4
2014-Jul-22 19:32N 48°38' W 122°52'3 3.2
2014-Jul-22 18:33N 48°35' W 122°53'1 1.1
2014-Jul-22 17:33N 48°34' W 122°51'4 2.8
2014-Jul-22 16:09N 48°31' W 122°47'0 0.0
2014-Jul-22 03:24N 48°31' W 122°47'0 0.0
2014-Jul-22 02:15N 48°31' W 122°47'2 1.3
2014-Jul-22 00:31N 48°31' W 122°44'3 2.8
2014-Jul-21 23:28N 48°31' W 122°40'1 0.7
2014-Jul-21 22:32N 48°31' W 122°39'2 1.6
2014-Jul-21 21:33N 48°31' W 122°36'0 0.0
2014-Jul-21 20:33N 48°31' W 122°36'0 0.0
2014-Jul-21 20:09N 48°31' W 122°36'0 0.0
2014-Jul-21 19:21N 48°31' W 122°36'0 0.0
2014-Jul-21 18:33N 48°31' W 122°36'0 0.0
2014-Jul-21 17:33N 48°31' W 122°36'0 0.0
2014-Jul-21 16:33N 48°31' W 122°36'0 0.0
2014-Jul-21 15:27N 48°31' W 122°36'0 0.0
2014-Jul-21 14:33N 48°31' W 122°36'0 0.0
2014-Jul-21 13:33N 48°31' W 122°36'0 0.0
2014-Jul-21 12:33N 48°31' W 122°36'0 0.0
2014-Jul-21 11:33N 48°31' W 122°36'0 0.0
2014-Jul-21 10:27N 48°31' W 122°36'0 0.0
2014-Jul-21 09:33N 48°31' W 122°36'0 0.0
2014-Jul-21 08:27N 48°31' W 122°36'0 0.0
2014-Jul-21 07:33N 48°31' W 122°36'0 0.0
2014-Jul-21 06:33N 48°31' W 122°36'0 0.0
2014-Jul-21 05:15N 48°31' W 122°36'0 0.0
2014-Jul-21 04:33N 48°31' W 122°36'0 0.0
2014-Jul-21 03:33N 48°31' W 122°36'0 0.0
2014-Jul-21 02:33N 48°31' W 122°36'0 0.0
2014-Jul-21 01:33N 48°31' W 122°36'  
Track history (hours):
 
Tides and Currents Weather Stations Pressure Air Temp Water Temp Dewpoint Dewpoint Depression Visibility Wind Speed Wind Dir Waves Ship Positions

Adventuress (United States)

Ship's website: http://www.soundexp.org/

More information available from US FCC via Universal Licensing System and Coast Guard Vessel Documentation Center.

Last reported at 2014-Jul-31 01:23 UTC. Time now 2014-Jul-31 11:38 UTC.
Position N 48°34' W 122°53'.

Length 43 m.

Type: Passenger vessel. MMSI: 367323180.

Date/timePositionNaut miles runAvg speedWind from/ knotsBaromVisibWave heightAir tempDewpointWater temp
2014-Jul-31 01:23N 48°34' W 122°53'0 0.6
2014-Jul-31 00:33N 48°34' W 122°53'1 1.1
2014-Jul-30 23:33N 48°34' W 122°51'1 0.9
2014-Jul-30 22:33N 48°33' W 122°50'2 1.7
2014-Jul-30 21:32N 48°31' W 122°51'2 0.1
2014-Jul-29 22:30N 48°30' W 122°51'1 0.5
2014-Jul-29 21:31N 48°30' W 122°51'1 0.2
2014-Jul-29 17:30N 48°30' W 122°50'0 0.0
2014-Jul-29 11:30N 48°30' W 122°50'0 0.0
2014-Jul-29 00:06N 48°30' W 122°50'1 1.2
2014-Jul-28 23:33N 48°31' W 122°51'0 0.1
2014-Jul-28 22:32N 48°31' W 122°51'1 1.5
2014-Jul-28 21:33N 48°32' W 122°49'4 3.4
2014-Jul-28 20:30N 48°31' W 122°43'5 5.3
2014-Jul-28 19:33N 48°31' W 122°36'1 0.5
2014-Jul-28 18:23N 48°31' W 122°36'0 0.0
2014-Jul-28 17:24N 48°31' W 122°36'0 0.0
2014-Jul-28 16:29N 48°31' W 122°36'0 0.0
2014-Jul-28 15:29N 48°31' W 122°36'0 0.0
2014-Jul-28 14:29N 48°31' W 122°36'0 0.0
2014-Jul-28 13:29N 48°31' W 122°36'0 0.0
2014-Jul-28 12:29N 48°31' W 122°36'0 0.0
2014-Jul-28 11:29N 48°31' W 122°36'0 0.0
2014-Jul-28 10:29N 48°31' W 122°36'0 0.0
2014-Jul-28 09:29N 48°31' W 122°36'0 0.0
2014-Jul-28 08:29N 48°31' W 122°36'0 0.0
2014-Jul-28 07:29N 48°31' W 122°36'0 0.0
2014-Jul-28 06:23N 48°31' W 122°36'0 0.0
2014-Jul-28 05:29N 48°31' W 122°36'0 0.0
2014-Jul-28 04:29N 48°31' W 122°36'0 0.0
2014-Jul-28 03:29N 48°31' W 122°36'0 0.0
2014-Jul-28 02:23N 48°31' W 122°36'0 0.0
2014-Jul-28 01:29N 48°31' W 122°36'0 0.0
2014-Jul-28 00:23N 48°31' W 122°36'0 0.0
2014-Jul-27 23:29N 48°31' W 122°36'0 0.0
2014-Jul-27 22:29N 48°31' W 122°36'0 0.0
2014-Jul-27 21:23N 48°31' W 122°36'0 0.0
2014-Jul-27 20:29N 48°31' W 122°36'0 0.0
2014-Jul-27 19:29N 48°31' W 122°36'0 0.0
2014-Jul-27 18:29N 48°31' W 122°36'0 0.0
2014-Jul-27 17:29N 48°31' W 122°36'0 0.0
2014-Jul-27 16:29N 48°31' W 122°36'0 0.0
2014-Jul-27 15:29N 48°31' W 122°36'0 0.0
2014-Jul-27 14:23N 48°31' W 122°36'0 0.0
2014-Jul-27 13:29N 48°31' W 122°36'0 0.0
2014-Jul-27 12:29N 48°31' W 122°36'0 0.0
2014-Jul-27 11:29N 48°31' W 122°36'0 0.0
2014-Jul-27 10:29N 48°31' W 122°36'0 0.0
2014-Jul-27 09:29N 48°31' W 122°36'0 0.0
2014-Jul-27 08:29N 48°31' W 122°36'0 0.0
2014-Jul-27 07:29N 48°31' W 122°36'0 0.0
2014-Jul-27 06:29N 48°31' W 122°36'0 0.0
2014-Jul-27 05:29N 48°31' W 122°36'0 0.0
2014-Jul-27 04:29N 48°31' W 122°36'0 0.0
2014-Jul-27 03:29N 48°31' W 122°36'0 0.0
2014-Jul-27 02:29N 48°31' W 122°36'0 0.0
2014-Jul-27 01:29N 48°31' W 122°36'0 0.0
2014-Jul-27 00:29N 48°31' W 122°36'0 0.0
2014-Jul-26 23:29N 48°31' W 122°36'0 0.0
2014-Jul-26 22:29N 48°31' W 122°36'0 0.1
2014-Jul-26 21:29N 48°31' W 122°36'0 0.0
2014-Jul-26 20:33N 48°31' W 122°36'1 0.5
2014-Jul-26 19:33N 48°31' W 122°36'0 0.3
2014-Jul-26 18:33N 48°31' W 122°35'1 1.0
2014-Jul-26 17:33N 48°31' W 122°34'5 0.2
2014-Jul-25 22:26N 48°34' W 122°40'5 5.1
2014-Jul-25 21:28N 48°30' W 122°43'6 6.8
2014-Jul-25 20:32N 48°25' W 122°50'6 6.5
2014-Jul-25 19:33N 48°26' W 122°59'5 5.2
2014-Jul-25 18:33N 48°28' W 123°06'4 4.3
2014-Jul-25 17:33N 48°29' W 123°12'5 4.5
2014-Jul-25 16:33N 48°34' W 123°12'5 3.9
2014-Jul-25 15:20N 48°38' W 123°14'5 0.3
2014-Jul-24 22:31N 48°38' W 123°06'7 7.1
2014-Jul-24 21:33N 48°33' W 123°00'1 0.6
2014-Jul-24 20:32N 48°32' W 123°01'0 0.0
2014-Jul-24 19:32N 48°32' W 123°01'0 0.0
2014-Jul-24 18:32N 48°32' W 123°01'0 0.0
2014-Jul-24 17:32N 48°32' W 123°01'1 0.8
2014-Jul-24 16:33N 48°33' W 123°00'1 0.2
2014-Jul-24 11:05N 48°34' W 122°59'0 0.0
2014-Jul-24 10:26N 48°34' W 122°59'0 0.0
2014-Jul-24 07:20N 48°34' W 122°59'0 0.0
2014-Jul-24 06:05N 48°34' W 122°59'0 0.0
2014-Jul-24 05:32N 48°34' W 122°59'0 0.0
2014-Jul-24 04:32N 48°34' W 122°59'0 0.0
2014-Jul-24 03:32N 48°34' W 122°59'0 0.0
2014-Jul-24 02:26N 48°34' W 122°59'0 0.0
2014-Jul-24 00:26N 48°34' W 122°59'0 0.0
2014-Jul-23 23:31N 48°34' W 122°59'0 0.0
2014-Jul-23 22:29N 48°34' W 122°59'0 0.0
2014-Jul-23 21:20N 48°34' W 122°59'0 0.0
2014-Jul-23 20:33N 48°34' W 122°59'2 1.8
2014-Jul-23 19:33N 48°33' W 122°57'4 4.3
2014-Jul-23 18:33N 48°36' W 122°52'2 2.2
2014-Jul-23 17:31N 48°38' W 122°52'2 0.1
2014-Jul-22 23:25N 48°40' W 122°54'1 0.5
2014-Jul-22 20:17N 48°39' W 122°52'1 1.4
2014-Jul-22 19:32N 48°38' W 122°52'3 3.2
2014-Jul-22 18:33N 48°35' W 122°53'1 1.1
2014-Jul-22 17:33N 48°34' W 122°51'4 2.8
2014-Jul-22 16:09N 48°31' W 122°47'0 0.0
2014-Jul-22 03:24N 48°31' W 122°47'0 0.0
2014-Jul-22 02:15N 48°31' W 122°47'2 1.3
2014-Jul-22 00:31N 48°31' W 122°44'3 2.8
2014-Jul-21 23:28N 48°31' W 122°40'1 0.7
2014-Jul-21 22:32N 48°31' W 122°39'2 1.6
2014-Jul-21 21:33N 48°31' W 122°36'0 0.0
2014-Jul-21 20:33N 48°31' W 122°36'0 0.0
2014-Jul-21 20:09N 48°31' W 122°36'0 0.0
2014-Jul-21 19:21N 48°31' W 122°36'0 0.0
2014-Jul-21 18:33N 48°31' W 122°36'0 0.0
2014-Jul-21 17:33N 48°31' W 122°36'0 0.0
2014-Jul-21 16:33N 48°31' W 122°36'0 0.0
2014-Jul-21 15:27N 48°31' W 122°36'0 0.0
2014-Jul-21 14:33N 48°31' W 122°36'0 0.0
2014-Jul-21 13:33N 48°31' W 122°36'0 0.0
2014-Jul-21 12:33N 48°31' W 122°36'0 0.0
2014-Jul-21 11:33N 48°31' W 122°36'0 0.0
2014-Jul-21 10:27N 48°31' W 122°36'0 0.0
2014-Jul-21 09:33N 48°31' W 122°36'0 0.0
2014-Jul-21 08:27N 48°31' W 122°36'0 0.0
2014-Jul-21 07:33N 48°31' W 122°36'0 0.0
2014-Jul-21 06:33N 48°31' W 122°36'0 0.0
2014-Jul-21 05:15N 48°31' W 122°36'0 0.0
2014-Jul-21 04:33N 48°31' W 122°36'0 0.0
2014-Jul-21 03:33N 48°31' W 122°36'0 0.0
2014-Jul-21 02:33N 48°31' W 122°36'0 0.0
2014-Jul-21 01:33N 48°31' W 122°36'  

Dump ship's entire track history